sensor_id;sensor_type;location;lat;lon;timestamp;pressure;altitude;pressure_sealevel;temperature;humidity
63731;BME280;49747;51.334;6.830;2022-10-29T16:52:42;101180.91;;;21.40;95.09
63731;BME280;49747;51.334;6.830;2022-10-29T16:55:09;101178.94;;;21.90;95.26
63731;BME280;49747;51.334;6.830;2022-10-29T17:01:40;101161.78;;;21.01;69.94
63731;BME280;49747;51.334;6.830;2022-10-29T17:04:08;101170.91;;;20.84;70.67
63731;BME280;49747;51.334;6.830;2022-10-29T17:06:34;101175.59;;;20.74;70.82
63731;BME280;49747;51.334;6.830;2022-10-29T17:09:04;101173.72;;;20.66;70.45
63731;BME280;49747;51.334;6.830;2022-10-29T17:11:31;101177.25;;;20.58;70.75
63731;BME280;49747;51.334;6.830;2022-10-29T17:13:57;101172.34;;;20.54;71.32
63731;BME280;49747;51.334;6.830;2022-10-29T17:16:24;101177.56;;;20.47;70.71
63731;BME280;49747;51.334;6.830;2022-10-29T17:18:50;101174.34;;;20.43;71.55
63731;BME280;49747;51.334;6.830;2022-10-29T17:21:17;101175.66;;;20.39;71.25
63731;BME280;49747;51.334;6.830;2022-10-29T17:23:43;101169.44;;;20.39;70.38
63731;BME280;49747;51.334;6.830;2022-10-29T17:26:10;101172.47;;;20.44;71.13
63731;BME280;49747;51.334;6.830;2022-10-29T17:28:37;101176.19;;;20.43;70.69
63731;BME280;49747;51.334;6.830;2022-10-29T17:31:05;101179.88;;;20.42;70.66
63731;BME280;49747;51.334;6.830;2022-10-29T17:33:32;101175.81;;;20.38;70.13
63731;BME280;49747;51.334;6.830;2022-10-29T17:36:00;101184.41;;;20.33;70.29
63731;BME280;49747;51.334;6.830;2022-10-29T17:38:27;101179.31;;;20.30;71.54
63731;BME280;49747;51.334;6.830;2022-10-29T17:40:54;101183.56;;;20.33;70.35
63731;BME280;49747;51.334;6.830;2022-10-29T17:43:20;101180.53;;;20.28;69.94
63731;BME280;49747;51.334;6.830;2022-10-29T17:45:47;101176.97;;;20.27;69.83
63731;BME280;49747;51.334;6.830;2022-10-29T17:48:16;101178.66;;;20.28;70.10
63731;BME280;49747;51.334;6.830;2022-10-29T17:51:00;101186.75;;;20.28;69.40
63731;BME280;49747;51.334;6.830;2022-10-29T17:53:28;101187.25;;;20.24;69.45
63731;BME280;49747;51.334;6.830;2022-10-29T17:55:59;101179.16;;;20.24;69.47
63731;BME280;49747;51.334;6.830;2022-10-29T17:58:27;101180.50;;;20.20;70.05
63731;BME280;49747;51.334;6.830;2022-10-29T18:00:53;101187.88;;;20.17;68.81
63731;BME280;49747;51.334;6.830;2022-10-29T18:03:23;101186.19;;;20.16;68.69
63731;BME280;49747;51.334;6.830;2022-10-29T18:05:50;101184.88;;;20.21;68.56
63731;BME280;49747;51.334;6.830;2022-10-29T18:08:17;101188.72;;;20.18;68.87
63731;BME280;49747;51.334;6.830;2022-10-29T18:10:44;101192.97;;;20.21;68.10
63731;BME280;49747;51.334;6.830;2022-10-29T18:13:10;101190.91;;;20.14;68.40
63731;BME280;49747;51.334;6.830;2022-10-29T18:15:37;101190.06;;;20.14;67.71
63731;BME280;49747;51.334;6.830;2022-10-29T18:18:04;101190.91;;;20.14;67.81
63731;BME280;49747;51.334;6.830;2022-10-29T18:20:31;101188.19;;;20.14;68.06
63731;BME280;49747;51.334;6.830;2022-10-29T18:22:57;101188.91;;;20.16;67.70
63731;BME280;49747;51.334;6.830;2022-10-29T18:25:24;101182.50;;;20.17;66.98
63731;BME280;49747;51.334;6.830;2022-10-29T18:27:51;101180.81;;;20.16;66.68
63731;BME280;49747;51.334;6.830;2022-10-29T18:30:21;101175.72;;;20.13;67.70
63731;BME280;49747;51.334;6.830;2022-10-29T18:32:50;101163.56;;;20.09;67.59
63731;BME280;49747;51.334;6.830;2022-10-29T18:35:17;101161.41;;;20.13;67.07
63731;BME280;49747;51.334;6.830;2022-10-29T18:37:44;101153.97;;;20.07;66.88
63731;BME280;49747;51.334;6.830;2022-10-29T18:40:11;101163.19;;;19.96;66.97
63731;BME280;49747;51.334;6.830;2022-10-29T18:42:39;101159.16;;;20.00;67.17
63731;BME280;49747;51.334;6.830;2022-10-29T18:45:07;101151.38;;;19.97;66.66
63731;BME280;49747;51.334;6.830;2022-10-29T18:47:34;101170.56;;;19.94;66.61
63731;BME280;49747;51.334;6.830;2022-10-29T18:50:01;101171.94;;;19.98;66.56
63731;BME280;49747;51.334;6.830;2022-10-29T18:52:27;101164.69;;;19.99;66.58
63731;BME280;49747;51.334;6.830;2022-10-29T18:54:55;101162.19;;;19.97;66.27
63731;BME280;49747;51.334;6.830;2022-10-29T18:57:21;101173.66;;;19.99;66.43
63731;BME280;49747;51.334;6.830;2022-10-29T18:59:49;101168.59;;;19.96;65.92
63731;BME280;49747;51.334;6.830;2022-10-29T19:02:16;101164.03;;;19.97;66.02
63731;BME280;49747;51.334;6.830;2022-10-29T19:04:43;101169.94;;;20.00;65.17
63731;BME280;49747;51.334;6.830;2022-10-29T19:07:09;101168.63;;;20.04;65.53
63731;BME280;49747;51.334;6.830;2022-10-29T19:09:37;101169.09;;;20.00;65.18
63731;BME280;49747;51.334;6.830;2022-10-29T19:12:04;101173.81;;;19.98;64.91
63731;BME280;49747;51.334;6.830;2022-10-29T19:14:31;101183.09;;;19.95;64.99
63731;BME280;49747;51.334;6.830;2022-10-29T19:16:58;101186.13;;;20.00;64.41
63731;BME280;49747;51.334;6.830;2022-10-29T19:19:24;101188.81;;;20.00;64.68
63731;BME280;49747;51.334;6.830;2022-10-29T19:21:51;101177.69;;;19.95;64.30
63731;BME280;49747;51.334;6.830;2022-10-29T19:24:18;101177.34;;;19.98;64.44
63731;BME280;49747;51.334;6.830;2022-10-29T19:26:44;101179.06;;;19.99;64.54
63731;BME280;49747;51.334;6.830;2022-10-29T19:29:12;101183.91;;;19.96;64.06
63731;BME280;49747;51.334;6.830;2022-10-29T19:31:39;101178.19;;;19.99;64.08
63731;BME280;49747;51.334;6.830;2022-10-29T19:34:06;101188.63;;;19.93;63.91
63731;BME280;49747;51.334;6.830;2022-10-29T19:36:34;101174.28;;;19.93;64.25
63731;BME280;49747;51.334;6.830;2022-10-29T19:39:02;101175.97;;;19.94;63.32
63731;BME280;49747;51.334;6.830;2022-10-29T19:41:29;101174.59;;;19.90;63.69
63731;BME280;49747;51.334;6.830;2022-10-29T19:43:59;101177.69;;;19.95;63.67
63731;BME280;49747;51.334;6.830;2022-10-29T19:46:26;101173.44;;;19.92;63.58
63731;BME280;49747;51.334;6.830;2022-10-29T19:48:54;101183.72;;;19.89;64.13
63731;BME280;49747;51.334;6.830;2022-10-29T19:51:22;101196.34;;;19.88;63.45
63731;BME280;49747;51.334;6.830;2022-10-29T19:53:49;101190.13;;;19.88;63.93
63731;BME280;49747;51.334;6.830;2022-10-29T19:56:19;101181.19;;;19.87;63.15
63731;BME280;49747;51.334;6.830;2022-10-29T19:58:46;101189.09;;;19.89;63.17
63731;BME280;49747;51.334;6.830;2022-10-29T20:01:15;101188.63;;;19.93;63.21
63731;BME280;49747;51.334;6.830;2022-10-29T20:03:43;101179.50;;;19.94;62.94
63731;BME280;49747;51.334;6.830;2022-10-29T20:06:10;101187.09;;;19.91;62.77
63731;BME280;49747;51.334;6.830;2022-10-29T20:08:37;101188.63;;;19.93;63.61
63731;BME280;49747;51.334;6.830;2022-10-29T20:11:04;101188.47;;;19.95;62.56
63731;BME280;49747;51.334;6.830;2022-10-29T20:13:32;101194.84;;;19.94;62.95
63731;BME280;49747;51.334;6.830;2022-10-29T20:16:06;101193.88;;;19.95;63.11
63731;BME280;49747;51.334;6.830;2022-10-29T20:18:34;101192.16;;;19.94;62.94
63731;BME280;49747;51.334;6.830;2022-10-29T20:21:01;101193.88;;;19.95;62.90
63731;BME280;49747;51.334;6.830;2022-10-29T20:23:28;101183.41;;;19.92;62.75
63731;BME280;49747;51.334;6.830;2022-10-29T20:25:54;101176.09;;;19.84;63.39
63731;BME280;49747;51.334;6.830;2022-10-29T20:28:21;101184.44;;;19.99;63.00
63731;BME280;49747;51.334;6.830;2022-10-29T20:30:47;101185.81;;;20.03;62.85
63731;BME280;49747;51.334;6.830;2022-10-29T20:33:14;101182.09;;;20.04;62.76
63731;BME280;49747;51.334;6.830;2022-10-29T20:35:40;101179.22;;;20.06;62.80
63731;BME280;49747;51.334;6.830;2022-10-29T20:38:07;101181.78;;;20.07;62.75
63731;BME280;49747;51.334;6.830;2022-10-29T20:40:34;101182.63;;;20.08;62.42
63731;BME280;49747;51.334;6.830;2022-10-29T20:43:00;101190.53;;;20.09;62.04
63731;BME280;49747;51.334;6.830;2022-10-29T20:45:27;101184.13;;;20.10;62.13
63731;BME280;49747;51.334;6.830;2022-10-29T20:47:54;101182.31;;;20.11;62.05
63731;BME280;49747;51.334;6.830;2022-10-29T20:50:21;101181.44;;;20.10;62.31
63731;BME280;49747;51.334;6.830;2022-10-29T20:52:47;101184.00;;;20.12;62.40
63731;BME280;49747;51.334;6.830;2022-10-29T20:55:15;101196.47;;;20.13;61.88
63731;BME280;49747;51.334;6.830;2022-10-29T20:57:42;101194.78;;;20.12;62.32
63731;BME280;49747;51.334;6.830;2022-10-29T21:00:08;101191.06;;;20.13;62.25
63731;BME280;49747;51.334;6.830;2022-10-29T21:02:35;101193.78;;;20.13;62.14
63731;BME280;49747;51.334;6.830;2022-10-29T21:05:02;101192.22;;;20.10;61.65
63731;BME280;49747;51.334;6.830;2022-10-29T21:07:29;101187.19;;;20.07;61.79
63731;BME280;49747;51.334;6.830;2022-10-29T21:09:55;101209.44;;;20.09;62.03
63731;BME280;49747;51.334;6.830;2022-10-29T21:12:22;101213.13;;;20.08;62.17
63731;BME280;49747;51.334;6.830;2022-10-29T21:14:48;101211.47;;;20.07;62.37
63731;BME280;49747;51.334;6.830;2022-10-29T21:17:15;101212.44;;;20.06;62.20
63731;BME280;49747;51.334;6.830;2022-10-29T21:19:41;101220.69;;;20.05;62.29
63731;BME280;49747;51.334;6.830;2022-10-29T21:22:07;101217.31;;;20.03;62.23
63731;BME280;49747;51.334;6.830;2022-10-29T21:24:34;101216.47;;;20.02;62.49
63731;BME280;49747;51.334;6.830;2022-10-29T21:27:01;101217.66;;;20.00;62.43
63731;BME280;49747;51.334;6.830;2022-10-29T21:29:27;101213.09;;;20.00;62.44
63731;BME280;49747;51.334;6.830;2022-10-29T21:31:54;101224.19;;;19.97;62.46
63731;BME280;49747;51.334;6.830;2022-10-29T21:34:21;101217.25;;;19.94;62.83
63731;BME280;49747;51.334;6.830;2022-10-29T21:36:47;101226.38;;;19.93;62.87
63731;BME280;49747;51.334;6.830;2022-10-29T21:39:14;101227.38;;;19.92;63.10
63731;BME280;49747;51.334;6.830;2022-10-29T21:41:41;101228.38;;;19.91;63.16
63731;BME280;49747;51.334;6.830;2022-10-29T21:44:08;101231.22;;;19.90;63.19
63731;BME280;49747;51.334;6.830;2022-10-29T21:46:34;101222.47;;;19.88;62.95
63731;BME280;49747;51.334;6.830;2022-10-29T21:49:01;101225.47;;;19.85;62.88
63731;BME280;49747;51.334;6.830;2022-10-29T21:51:27;101230.88;;;19.85;63.11
63731;BME280;49747;51.334;6.830;2022-10-29T21:53:54;101223.56;;;19.77;63.41
63731;BME280;49747;51.334;6.830;2022-10-29T21:56:20;101230.03;;;19.84;63.43
63731;BME280;49747;51.334;6.830;2022-10-29T21:58:49;101232.91;;;19.83;63.05
63731;BME280;49747;51.334;6.830;2022-10-29T22:01:17;101235.59;;;19.83;63.02
63731;BME280;49747;51.334;6.830;2022-10-29T22:03:45;101228.34;;;19.83;63.11
63731;BME280;49747;51.334;6.830;2022-10-29T22:06:15;101239.25;;;19.82;63.23
63731;BME280;49747;51.334;6.830;2022-10-29T22:08:42;101232.19;;;19.81;63.28
63731;BME280;49747;51.334;6.830;2022-10-29T22:11:10;101234.88;;;19.81;63.34
63731;BME280;49747;51.334;6.830;2022-10-29T22:13:37;101232.19;;;19.81;63.25
63731;BME280;49747;51.334;6.830;2022-10-29T22:16:06;101233.19;;;19.80;63.24
63731;BME280;49747;51.334;6.830;2022-10-29T22:18:32;101226.09;;;19.79;63.53
63731;BME280;49747;51.334;6.830;2022-10-29T22:21:16;101227.94;;;19.78;63.65
63731;BME280;49747;51.334;6.830;2022-10-29T22:23:45;101227.94;;;19.78;63.62
63731;BME280;49747;51.334;6.830;2022-10-29T22:26:13;101222.72;;;19.77;63.63
63731;BME280;49747;51.334;6.830;2022-10-29T22:28:41;101222.72;;;19.77;63.73
63731;BME280;49747;51.334;6.830;2022-10-29T22:31:08;101219.03;;;19.78;63.83
63731;BME280;49747;51.334;6.830;2022-10-29T22:33:34;101220.34;;;19.74;63.77
63731;BME280;49747;51.334;6.830;2022-10-29T22:36:27;101226.44;;;19.76;63.77
63731;BME280;49747;51.334;6.830;2022-10-29T22:38:56;101220.19;;;19.75;63.84
63731;BME280;49747;51.334;6.830;2022-10-29T22:41:24;101223.03;;;19.74;63.79
63731;BME280;49747;51.334;6.830;2022-10-29T22:43:54;101223.03;;;19.74;63.89
63731;BME280;49747;51.334;6.830;2022-10-29T22:46:21;101233.81;;;19.74;64.02
63731;BME280;49747;51.334;6.830;2022-10-29T22:48:47;101233.81;;;19.74;63.92
63731;BME280;49747;51.334;6.830;2022-10-29T22:51:22;101222.03;;;19.75;64.05
63731;BME280;49747;51.334;6.830;2022-10-29T22:53:50;101229.13;;;19.76;63.68
63731;BME280;49747;51.334;6.830;2022-10-29T22:58:48;101223.03;;;19.74;63.91
63731;BME280;49747;51.334;6.830;2022-10-29T23:01:23;101230.13;;;19.75;63.81
63731;BME280;49747;51.334;6.830;2022-10-29T23:03:50;101227.41;;;19.75;64.10
63731;BME280;49747;51.334;6.830;2022-10-29T23:06:19;101220.34;;;19.74;63.99
63731;BME280;49747;51.334;6.830;2022-10-29T23:08:46;101227.75;;;19.72;64.11
63731;BME280;49747;51.334;6.830;2022-10-29T23:11:15;101212.56;;;19.71;64.37
63731;BME280;49747;51.334;6.830;2022-10-29T23:13:49;101215.13;;;19.72;64.28
63731;BME280;49747;51.334;6.830;2022-10-29T23:16:16;101220.50;;;19.72;64.35
63731;BME280;49747;51.334;6.830;2022-10-29T23:18:46;101221.34;;;19.73;64.32
63731;BME280;49747;51.334;6.830;2022-10-29T23:21:14;101223.22;;;19.72;64.43
63731;BME280;49747;51.334;6.830;2022-10-29T23:23:40;101222.50;;;19.70;64.52
63731;BME280;49747;51.334;6.830;2022-10-29T23:26:07;101218.81;;;19.71;64.64
63731;BME280;49747;51.334;6.830;2022-10-29T23:28:37;101223.34;;;19.71;64.57
63731;BME280;49747;51.334;6.830;2022-10-29T23:31:08;101231.59;;;19.69;64.65
63731;BME280;49747;51.334;6.830;2022-10-29T23:33:35;101223.50;;;19.69;64.91
63731;BME280;49747;51.334;6.830;2022-10-29T23:36:03;101228.91;;;19.69;64.86
63731;BME280;49747;51.334;6.830;2022-10-29T23:38:30;101230.94;;;19.67;64.86
63731;BME280;49747;51.334;6.830;2022-10-29T23:40:57;101230.75;;;19.68;65.14
63731;BME280;49747;51.334;6.830;2022-10-29T23:43:23;101231.78;;;19.67;65.05
63731;BME280;49747;51.334;6.830;2022-10-29T23:45:50;101227.38;;;19.66;64.87
63731;BME280;49747;51.334;6.830;2022-10-29T23:48:17;101222.97;;;19.65;65.11
63731;BME280;49747;51.334;6.830;2022-10-29T23:50:45;101222.97;;;19.65;65.20
63731;BME280;49747;51.334;6.830;2022-10-29T23:53:12;101223.28;;;19.62;65.41
63731;BME280;49747;51.334;6.830;2022-10-29T23:55:40;101227.84;;;19.62;65.17
63731;BME280;49747;51.334;6.830;2022-10-29T23:58:07;101223.44;;;19.61;65.60
